Time;durP1;ratioP1;P1;durP2;ratioP2;P2;SDS_P1;SDS_P2;PMS_P1;PMS_P2;Temp;Humidity;BMP_temperature;BMP_pressure;BME280_temperature;BME280_humidity;BME280_pressure;Samples;Min_cycle;Max_cycle;Signal;HPM_P1;HPM_P2
2020/12/19 00:01:02;;;;;;;;;;;;;;;30.30;26.44;102107.91;5063012;28;803;-35
2020/12/19 00:03:27;;;;;;;;;;;;;;;29.81;27.16;102115.00;5062696;28;736;-36
2020/12/19 00:05:53;;;;;;;;;;;;;;;29.41;27.83;102114.72;5063058;28;967;-36
2020/12/19 00:08:18;;;;;;;;;;;;;;;29.85;27.45;102120.09;5062681;28;1547;-36
2020/12/19 00:10:43;;;;;;;;;;;;;;;30.22;26.99;102117.91;5062693;28;858;-36
2020/12/19 00:13:09;;;;;;;;;;;;;;;30.29;26.68;102116.22;5062709;28;859;-36
2020/12/19 00:15:34;;;;;;;;;;;;;;;29.68;27.96;102131.78;5062720;28;1902;-36
2020/12/19 00:17:59;;;;;;;;;;;;;;;29.43;27.72;102126.25;5062584;28;1076;-36
2020/12/19 00:20:24;;;;;;;;;;;;;;;29.95;27.35;102139.75;5062724;28;1010;-37
2020/12/19 00:22:50;;;;;;;;;;;;;;;30.22;27.09;102139.63;5062967;28;811;-35
2020/12/19 00:25:15;;;;;;;;;;;;;;;30.37;26.49;102142.50;5062334;28;851;-35
2020/12/19 00:27:41;;;;;;;;;;;;;;;29.58;28.02;102141.88;5062969;28;775;-35
2020/12/19 00:30:07;;;;;;;;;;;;;;;29.51;28.06;102133.56;5062872;28;1012;-35
2020/12/19 00:32:32;;;;;;;;;;;;;;;29.94;27.70;102129.94;5062694;28;775;-35
2020/12/19 00:34:57;;;;;;;;;;;;;;;30.25;27.04;102132.00;5062204;28;1910;-34
2020/12/19 00:37:23;;;;;;;;;;;;;;;30.04;27.23;102137.91;5062544;28;852;-35
2020/12/19 00:39:49;;;;;;;;;;;;;;;29.63;28.12;102144.16;5062585;28;767;-35
2020/12/19 00:42:14;;;;;;;;;;;;;;;29.70;27.99;102134.31;5062752;28;827;-35
2020/12/19 00:44:39;;;;;;;;;;;;;;;30.17;27.39;102138.25;5074126;28;1199;-34
2020/12/19 00:47:04;;;;;;;;;;;;;;;30.31;27.36;102138.63;5082533;28;799;-36
2020/12/19 00:49:30;;;;;;;;;;;;;;;30.10;27.64;102131.78;5082646;28;759;-35
2020/12/19 00:51:55;;;;;;;;;;;;;;;29.65;28.42;102129.41;5063676;28;1005;-35
2020/12/19 00:54:20;;;;;;;;;;;;;;;29.80;28.08;102137.72;5060182;28;744;-35
2020/12/19 00:56:45;;;;;;;;;;;;;;;30.18;27.73;102131.78;5059440;28;1906;-35
2020/12/19 00:59:11;;;;;;;;;;;;;;;30.35;27.52;102133.66;5059155;28;756;-36
2020/12/19 01:01:36;;;;;;;;;;;;;;;29.88;28.19;102138.75;5059207;28;843;-35
2020/12/19 01:04:01;;;;;;;;;;;;;;;29.64;28.84;102135.84;5059244;28;764;-35
2020/12/19 01:06:27;;;;;;;;;;;;;;;29.94;28.34;102135.38;5058870;28;955;-35
2020/12/19 01:08:53;;;;;;;;;;;;;;;30.26;27.93;102141.00;5059676;28;742;-35
2020/12/19 01:11:19;;;;;;;;;;;;;;;30.33;27.76;102130.31;5059448;28;738;-35
2020/12/19 01:13:45;;;;;;;;;;;;;;;29.82;28.04;102133.00;5058911;28;765;-35
2020/12/19 01:16:16;;;;;;;;;;;;;;;29.52;28.36;102131.72;5041524;28;1906;-35
2020/12/19 01:18:45;;;;;;;;;;;;;;;29.93;28.34;102128.22;5058845;28;1289;-35
2020/12/19 01:21:11;;;;;;;;;;;;;;;30.21;27.91;102133.38;5058605;28;982;-35
2020/12/19 01:23:36;;;;;;;;;;;;;;;30.38;27.79;102134.19;5058882;28;830;-35
2020/12/19 01:26:02;;;;;;;;;;;;;;;29.77;28.89;102131.78;5058618;28;728;-35
2020/12/19 01:28:27;;;;;;;;;;;;;;;29.50;28.81;102131.88;5058913;28;764;-35
2020/12/19 01:30:52;;;;;;;;;;;;;;;30.08;28.73;102135.72;5058900;28;800;-35
2020/12/19 01:33:18;;;;;;;;;;;;;;;30.29;27.88;102124.34;5058396;28;739;-35
2020/12/19 01:35:43;;;;;;;;;;;;;;;30.40;27.69;102124.00;5058447;28;1972;-35
2020/12/19 01:38:08;;;;;;;;;;;;;;;29.90;28.52;102125.84;5058607;28;815;-36
2020/12/19 01:40:34;;;;;;;;;;;;;;;29.65;28.64;102123.13;5058295;28;808;-36
2020/12/19 01:42:59;;;;;;;;;;;;;;;30.01;28.64;102121.97;5058578;28;792;-35
2020/12/19 01:45:24;;;;;;;;;;;;;;;30.26;28.45;102122.81;5076119;28;1179;-36
2020/12/19 01:47:49;;;;;;;;;;;;;;;30.31;28.05;102125.88;5078106;28;764;-34
2020/12/19 01:50:15;;;;;;;;;;;;;;;29.75;28.90;102129.25;5073432;28;982;-34
2020/12/19 01:52:40;;;;;;;;;;;;;;;29.51;29.01;102122.72;5040413;28;796;-34
2020/12/19 01:55:05;;;;;;;;;;;;;;;30.06;28.77;102133.16;5040457;28;1910;-32
2020/12/19 01:57:31;;;;;;;;;;;;;;;30.33;28.56;102128.41;5040345;28;908;-32
2020/12/19 01:59:57;;;;;;;;;;;;;;;30.41;28.48;102135.72;5058279;28;808;-32
2020/12/19 02:02:23;;;;;;;;;;;;;;;29.84;29.68;102137.38;5057724;28;771;-32
2020/12/19 02:04:48;;;;;;;;;;;;;;;29.51;29.36;102132.75;5057456;28;994;-32
2020/12/19 02:07:15;;;;;;;;;;;;;;;29.97;29.33;102135.03;5058086;28;807;-32
2020/12/19 02:09:40;;;;;;;;;;;;;;;30.31;28.75;102125.88;5057630;28;811;-35
2020/12/19 02:12:06;;;;;;;;;;;;;;;30.40;28.78;102134.88;5040320;28;756;-34
2020/12/19 02:14:31;;;;;;;;;;;;;;;29.79;29.71;102136.03;5058095;28;790;-33
2020/12/19 02:16:57;;;;;;;;;;;;;;;29.64;29.86;102141.28;5057733;28;1902;-34
2020/12/19 02:19:22;;;;;;;;;;;;;;;30.13;29.35;102142.31;5058179;28;1726;-34
2020/12/19 02:21:48;;;;;;;;;;;;;;;30.36;29.13;102127.25;5057769;28;1021;-34
2020/12/19 02:24:13;;;;;;;;;;;;;;;30.26;29.48;102128.25;5057616;28;784;-34
2020/12/19 02:26:38;;;;;;;;;;;;;;;29.83;30.01;102139.25;5057757;28;812;-35
2020/12/19 02:29:04;;;;;;;;;;;;;;;29.80;30.22;102136.88;5057230;28;872;-36
2020/12/19 02:31:29;;;;;;;;;;;;;;;30.20;29.62;102128.94;5057671;28;842;-36
2020/12/19 02:33:54;;;;;;;;;;;;;;;30.37;29.34;102126.22;5057506;28;834;-36
2020/12/19 02:36:20;;;;;;;;;;;;;;;30.30;29.29;102134.19;5057217;28;1977;-36
2020/12/19 02:38:45;;;;;;;;;;;;;;;29.86;30.07;102132.66;5057386;28;760;-34
2020/12/19 02:41:10;;;;;;;;;;;;;;;29.75;30.28;102128.38;5057735;28;724;-33
2020/12/19 02:43:35;;;;;;;;;;;;;;;30.18;30.14;102133.66;5060031;28;963;-34
2020/12/19 02:46:01;;;;;;;;;;;;;;;30.38;29.55;102128.75;5077240;28;764;-34
2020/12/19 02:48:26;;;;;;;;;;;;;;;30.19;29.78;102135.38;5077009;28;1024;-34
2020/12/19 02:50:51;;;;;;;;;;;;;;;29.87;30.15;102139.75;5067220;28;1010;-36
2020/12/19 02:53:17;;;;;;;;;;;;;;;29.85;30.09;102139.94;5057266;28;867;-36
2020/12/19 02:55:42;;;;;;;;;;;;;;;30.23;29.75;102142.16;5057200;28;1898;-36
2020/12/19 02:58:07;;;;;;;;;;;;;;;30.40;29.39;102139.44;5056892;28;778;-34
2020/12/19 03:00:32;;;;;;;;;;;;;;;30.02;29.21;102139.94;5056909;28;863;-35
2020/12/19 03:02:58;;;;;;;;;;;;;;;29.74;30.28;102141.13;5057144;28;803;-34
2020/12/19 03:05:23;;;;;;;;;;;;;;;29.97;29.91;102140.44;5056637;28;955;-34
2020/12/19 03:07:48;;;;;;;;;;;;;;;30.26;29.21;102144.53;5057101;28;791;-35
2020/12/19 03:10:14;;;;;;;;;;;;;;;30.39;29.06;102138.59;5057008;28;808;-35
2020/12/19 03:12:39;;;;;;;;;;;;;;;29.99;29.18;102153.84;5056714;28;751;-35
2020/12/19 03:15:04;;;;;;;;;;;;;;;29.43;30.45;102157.94;5056970;28;1901;-35
2020/12/19 03:17:29;;;;;;;;;;;;;;;29.92;29.84;102148.25;5055781;28;808;-35
2020/12/19 03:19:55;;;;;;;;;;;;;;;30.19;29.15;102147.09;5056427;28;1068;-35
2020/12/19 03:22:20;;;;;;;;;;;;;;;30.40;28.78;102150.28;5056926;28;799;-35
2020/12/19 03:24:45;;;;;;;;;;;;;;;29.96;29.48;102149.63;5056648;28;849;-35
2020/12/19 03:27:10;;;;;;;;;;;;;;;29.58;29.33;102150.88;5056737;28;1059;-35
2020/12/19 03:29:36;;;;;;;;;;;;;;;30.00;29.28;102150.09;5056612;28;763;-35
2020/12/19 03:32:01;;;;;;;;;;;;;;;30.28;28.91;102152.53;5056569;28;839;-35
2020/12/19 03:34:26;;;;;;;;;;;;;;;30.37;28.65;102156.06;5056649;28;755;-35
2020/12/19 03:36:52;;;;;;;;;;;;;;;29.94;28.89;102152.50;5056259;28;1922;-35
2020/12/19 03:39:17;;;;;;;;;;;;;;;29.40;29.66;102158.28;5056073;28;863;-35
2020/12/19 03:41:42;;;;;;;;;;;;;;;29.96;29.17;102159.63;5056626;28;787;-34
2020/12/19 03:44:07;;;;;;;;;;;;;;;30.27;28.45;102157.09;5063723;28;1120;-35
2020/12/19 03:46:33;;;;;;;;;;;;;;;30.38;28.09;102157.78;5076335;28;843;-35
2020/12/19 03:48:58;;;;;;;;;;;;;;;29.89;29.15;102164.84;5076910;28;776;-35
2020/12/19 03:51:23;;;;;;;;;;;;;;;29.46;28.98;102166.59;5062055;28;1068;-33
2020/12/19 03:53:48;;;;;;;;;;;;;;;30.01;28.63;102160.78;5056232;28;800;-34
2020/12/19 03:56:14;;;;;;;;;;;;;;;30.31;28.18;102166.59;5056368;28;1976;-35
2020/12/19 03:58:39;;;;;;;;;;;;;;;30.41;27.97;102160.97;5056377;28;812;-36
2020/12/19 04:01:04;;;;;;;;;;;;;;;29.92;28.84;102161.81;5056245;28;795;-36
2020/12/19 04:03:29;;;;;;;;;;;;;;;29.52;28.93;102169.66;5056246;28;847;-35
2020/12/19 04:05:55;;;;;;;;;;;;;;;29.73;27.30;102168.41;5056210;28;951;-35
2020/12/19 04:08:20;;;;;;;;;;;;;;;29.90;26.10;102169.25;5056057;28;844;-34
2020/12/19 04:10:45;;;;;;;;;;;;;;;29.87;25.22;102175.03;5056524;28;760;-37
2020/12/19 04:13:10;;;;;;;;;;;;;;;29.16;27.21;102176.16;5058869;28;863;-35
2020/12/19 04:15:36;;;;;;;;;;;;;;;29.39;26.75;102181.84;5075390;28;1914;-35
2020/12/19 04:18:01;;;;;;;;;;;;;;;29.86;26.58;102187.75;5075212;28;1058;-36
2020/12/19 04:20:26;;;;;;;;;;;;;;;30.13;26.38;102176.75;5069714;28;971;-36
2020/12/19 04:22:51;;;;;;;;;;;;;;;29.18;23.33;102179.53;5055753;28;871;-43
2020/12/19 04:25:17;;;;;;;;;;;;;;;25.46;21.58;102172.59;5056257;28;796;-41
2020/12/19 04:27:42;;;;;;;;;;;;;;;25.12;22.70;102181.84;5056286;28;819;-42
2020/12/19 04:30:08;;;;;;;;;;;;;;;25.05;22.24;102172.59;5059604;28;785;-42
2020/12/19 04:32:33;;;;;;;;;;;;;;;22.36;24.30;102167.09;5059967;28;732;-42
2020/12/19 04:34:59;;;;;;;;;;;;;;;21.74;24.91;102170.66;5059563;28;1972;-37
2020/12/19 04:37:24;;;;;;;;;;;;;;;21.35;25.54;102170.75;5059419;28;828;-36
2020/12/19 04:39:49;;;;;;;;;;;;;;;21.70;24.58;102171.88;5059825;28;855;-35
2020/12/19 04:42:15;;;;;;;;;;;;;;;21.63;24.88;102165.22;5060020;28;752;-35
2020/12/19 04:44:40;;;;;;;;;;;;;;;20.57;26.02;102170.66;5070758;28;1183;-35
2020/12/19 04:47:05;;;;;;;;;;;;;;;21.95;24.03;102170.09;5077167;28;816;-36
2020/12/19 04:49:31;;;;;;;;;;;;;;;22.51;23.28;102173.13;5078705;28;863;-37
2020/12/19 04:51:57;;;;;;;;;;;;;;;22.61;22.93;102173.31;5062928;28;942;-35
2020/12/19 04:54:22;;;;;;;;;;;;;;;22.75;23.04;102178.44;5079586;28;740;-37
2020/12/19 04:56:48;;;;;;;;;;;;;;;22.65;23.96;102173.94;5061815;28;1898;-34
2020/12/19 04:59:13;;;;;;;;;;;;;;;24.54;23.39;102175.94;5079292;28;772;-45
2020/12/19 05:01:38;;;;;;;;;;;;;;;25.47;22.75;102182.41;5079794;28;867;-43
2020/12/19 05:04:03;;;;;;;;;;;;;;;26.21;22.78;102183.97;5079038;28;767;-44
2020/12/19 05:06:29;;;;;;;;;;;;;;;25.55;24.75;102187.09;5063715;28;1002;-42
2020/12/19 05:08:55;;;;;;;;;;;;;;;25.52;24.12;102185.53;5059208;28;753;-45
2020/12/19 05:11:21;;;;;;;;;;;;;;;26.56;22.80;102182.53;5059121;28;779;-43
2020/12/19 05:13:46;;;;;;;;;;;;;;;26.83;22.75;102182.75;5059020;28;761;-43
2020/12/19 05:16:12;;;;;;;;;;;;;;;25.90;20.79;102183.09;5059017;28;1902;-45
2020/12/19 05:18:38;;;;;;;;;;;;;;;24.38;22.27;102187.13;5058633;28;1091;-45
2020/12/19 05:21:06;;;;;;;;;;;;;;;23.59;22.78;102197.09;5058346;28;959;-46
2020/12/19 05:23:32;;;;;;;;;;;;;;;22.26;24.88;102191.94;5059330;28;763;-41
2020/12/19 05:25:58;;;;;;;;;;;;;;;22.45;23.82;102195.91;5058678;28;759;-45
2020/12/19 05:28:23;;;;;;;;;;;;;;;22.46;24.41;102196.75;5058790;28;820;-42
2020/12/19 05:30:48;;;;;;;;;;;;;;;24.15;24.04;102195.28;5058911;28;823;-42
2020/12/19 05:33:14;;;;;;;;;;;;;;;25.24;23.18;102205.97;5058636;28;767;-40
2020/12/19 05:35:39;;;;;;;;;;;;;;;25.48;23.96;102202.09;5040346;28;1976;-39
2020/12/19 05:38:04;;;;;;;;;;;;;;;24.95;25.15;102204.84;5058754;28;760;-38
2020/12/19 05:40:30;;;;;;;;;;;;;;;25.19;24.75;102209.91;5057542;28;780;-37
2020/12/19 05:42:58;;;;;;;;;;;;;;;25.90;24.09;102204.66;5058587;28;764;-40
2020/12/19 05:45:24;;;;;;;;;;;;;;;26.24;24.04;102216.88;5076396;28;1326;-39
2020/12/19 05:47:50;;;;;;;;;;;;;;;26.53;23.75;102207.13;5078609;28;870;-38
2020/12/19 05:50:15;;;;;;;;;;;;;;;26.64;23.59;102215.06;5073536;28;943;-39
2020/12/19 05:52:40;;;;;;;;;;;;;;;26.17;24.32;102219.28;5058089;28;803;-40
2020/12/19 05:55:08;;;;;;;;;;;;;;;25.74;25.25;102218.66;5058505;28;1967;-35
2020/12/19 05:57:34;;;;;;;;;;;;;;;26.17;24.67;102221.16;5058218;28;760;-37
2020/12/19 05:59:59;;;;;;;;;;;;;;;26.37;24.62;102221.19;5058333;28;822;-40
2020/12/19 06:02:25;;;;;;;;;;;;;;;26.63;24.17;102229.56;5058346;28;839;-40
2020/12/19 06:04:50;;;;;;;;;;;;;;;26.58;24.37;102225.56;5057972;28;995;-38
2020/12/19 06:07:16;;;;;;;;;;;;;;;26.62;24.38;102229.69;5040312;28;764;-38
2020/12/19 06:09:41;;;;;;;;;;;;;;;25.79;25.67;102231.75;5040116;28;543;-37
2020/12/19 06:12:08;;;;;;;;;;;;;;;26.03;25.59;102239.44;5040142;28;894;-38
2020/12/19 06:14:39;;;;;;;;;;;;;;;26.40;25.01;102232.56;5058095;28;784;-38
2020/12/19 06:17:30;;;;;;;;;;;;;;;26.56;24.97;102244.59;5057775;28;1967;-38
2020/12/19 06:19:55;;;;;;;;;;;;;;;26.22;25.33;102240.47;5054299;28;1703;-37
2020/12/19 06:22:27;;;;;;;;;;;;;;;25.89;25.83;102247.94;5039904;28;772;-39
2020/12/19 06:24:52;;;;;;;;;;;;;;;25.87;26.12;102256.16;5040088;28;816;-39
2020/12/19 06:27:18;;;;;;;;;;;;;;;26.38;25.58;102252.56;5057720;28;804;-38
2020/12/19 06:29:43;;;;;;;;;;;;;;;26.64;25.47;102255.53;5057605;28;803;-38
2020/12/19 06:32:09;;;;;;;;;;;;;;;26.75;25.06;102256.38;5057699;28;874;-37
2020/12/19 06:34:34;;;;;;;;;;;;;;;26.97;24.74;102249.81;5047665;28;1081;-35
2020/12/19 06:37:00;;;;;;;;;;;;;;;26.00;26.32;102257.75;5076504;28;1979;-38
2020/12/19 06:39:25;;;;;;;;;;;;;;;25.91;26.43;102254.88;5057380;28;839;-38
2020/12/19 06:41:55;;;;;;;;;;;;;;;26.47;25.42;102256.25;5076411;28;832;-36
2020/12/19 06:44:31;;;;;;;;;;;;;;;26.71;25.14;102252.28;5076965;28;1174;-38
2020/12/19 06:46:57;;;;;;;;;;;;;;;26.41;25.75;102253.13;5077282;28;797;-36
2020/12/19 06:49:22;;;;;;;;;;;;;;;25.83;26.58;102256.56;5077102;28;747;-37
2020/12/19 06:52:00;;;;;;;;;;;;;;;26.15;26.34;102256.34;5059070;28;1025;-38
2020/12/19 06:54:32;;;;;;;;;;;;;;;26.52;25.87;102262.94;5072485;28;799;-35
2020/12/19 06:56:58;;;;;;;;;;;;;;;26.76;25.38;102264.34;5076770;28;1975;-37
2020/12/19 06:59:24;;;;;;;;;;;;;;;26.82;25.44;102260.22;5077045;28;727;-37
2020/12/19 07:01:49;;;;;;;;;;;;;;;26.40;26.34;102264.06;5077346;28;742;-35
2020/12/19 07:04:30;;;;;;;;;;;;;;;26.22;26.50;102264.75;5076618;28;704;-37
2020/12/19 07:07:02;;;;;;;;;;;;;;;26.68;25.77;102261.50;5058088;28;1013;-37
2020/12/19 07:09:28;;;;;;;;;;;;;;;26.88;25.66;102254.25;5068457;28;850;-38
2020/12/19 07:11:54;;;;;;;;;;;;;;;26.94;25.47;102255.53;5076330;28;809;-35
2020/12/19 07:14:19;;;;;;;;;;;;;;;26.58;25.97;102257.97;5076889;28;763;-37
2020/12/19 07:16:45;;;;;;;;;;;;;;;26.08;26.85;102257.03;5076758;28;1906;-37
2020/12/19 07:19:14;;;;;;;;;;;;;;;26.58;26.26;102263.34;5076527;28;1052;-40
2020/12/19 07:21:40;;;;;;;;;;;;;;;26.94;25.69;102251.97;5060462;28;963;-38
2020/12/19 07:24:05;;;;;;;;;;;;;;;27.05;25.40;102259.94;5056582;28;772;-39
2020/12/19 07:26:30;;;;;;;;;;;;;;;27.09;25.45;102257.78;5056457;28;815;-38
2020/12/19 07:28:55;;;;;;;;;;;;;;;26.44;26.43;102259.25;5056673;28;760;-38
2020/12/19 07:31:21;;;;;;;;;;;;;;;26.04;26.90;102269.97;5038535;28;819;-38
2020/12/19 07:33:46;;;;;;;;;;;;;;;26.65;26.32;102268.06;5056477;28;823;-37
2020/12/19 07:36:11;;;;;;;;;;;;;;;26.26;26.59;102262.59;5038429;28;1981;-38
2020/12/19 07:38:36;;;;;;;;;;;;;;;25.80;27.50;102277.44;5038358;28;883;-37
2020/12/19 07:41:03;;;;;;;;;;;;;;;26.36;26.70;102274.28;5045650;28;802;-36
2020/12/19 07:43:29;;;;;;;;;;;;;;;26.96;25.66;102269.72;5076072;28;1115;-36
2020/12/19 07:45:57;;;;;;;;;;;;;;;27.14;25.43;102272.53;5076353;28;896;-36
2020/12/19 07:48:22;;;;;;;;;;;;;;;27.00;25.52;102271.13;5076337;28;819;-38
2020/12/19 07:50:48;;;;;;;;;;;;;;;27.41;25.21;102266.50;5066770;28;1010;-37
2020/12/19 07:53:13;;;;;;;;;;;;;;;26.63;26.26;102267.34;5056258;28;815;-38
2020/12/19 07:55:38;;;;;;;;;;;;;;;26.08;27.14;102267.81;5056340;28;1964;-38
2020/12/19 07:58:03;;;;;;;;;;;;;;;26.62;26.47;102268.34;5038027;28;1139;-38
2020/12/19 08:00:29;;;;;;;;;;;;;;;27.07;26.03;102267.88;5056080;28;836;-38
2020/12/19 08:02:54;;;;;;;;;;;;;;;26.48;26.52;102266.91;5056557;28;827;-38
2020/12/19 08:05:20;;;;;;;;;;;;;;;26.21;26.96;102271.13;5060197;28;952;-38
2020/12/19 08:07:47;;;;;;;;;;;;;;;26.85;26.10;102264.47;5059758;28;815;-37
2020/12/19 08:10:12;;;;;;;;;;;;;;;27.10;25.71;102264.88;5042123;28;1525;-38
2020/12/19 08:12:39;;;;;;;;;;;;;;;27.06;25.86;102258.91;5059952;28;794;-37
2020/12/19 08:15:06;;;;;;;;;;;;;;;26.68;26.14;102263.34;5060013;28;1961;-36
2020/12/19 08:17:33;;;;;;;;;;;;;;;26.09;27.10;102258.75;5060181;28;760;-36
2020/12/19 08:19:58;;;;;;;;;;;;;;;26.55;26.72;102258.25;5041643;28;1334;-37
2020/12/19 08:22:23;;;;;;;;;;;;;;;26.42;26.63;102251.31;5059989;28;791;-38
2020/12/19 08:24:49;;;;;;;;;;;;;;;25.94;27.43;102256.47;5059664;28;824;-36
2020/12/19 08:27:35;;;;;;;;;;;;;;;26.24;27.08;102256.50;5059538;28;764;-38
2020/12/19 08:30:04;;;;;;;;;;;;;;;27.02;25.92;102252.13;5059669;28;801;-38
2020/12/19 08:32:30;;;;;;;;;;;;;;;27.06;25.83;102250.81;5060244;28;816;-38
2020/12/19 08:34:55;;;;;;;;;;;;;;;27.18;25.83;102243.41;5059241;28;1918;-38
2020/12/19 08:37:20;;;;;;;;;;;;;;;26.94;26.14;102236.63;5060073;28;819;-39
2020/12/19 08:40:04;;;;;;;;;;;;;;;26.44;26.87;102235.84;5059738;28;828;-38
2020/12/19 08:42:30;;;;;;;;;;;;;;;26.90;26.17;102235.19;5059346;28;871;-36
2020/12/19 08:45:10;;;;;;;;;;;;;;;27.00;25.98;102236.03;5073517;28;1137;-38
2020/12/19 08:47:35;;;;;;;;;;;;;;;26.34;26.81;102232.28;5079543;28;775;-37
2020/12/19 08:50:02;;;;;;;;;;;;;;;26.06;27.26;102235.59;5058529;28;959;-37
2020/12/19 08:52:27;;;;;;;;;;;;;;;26.81;26.28;102233.38;5059253;28;871;-38
2020/12/19 08:54:56;;;;;;;;;;;;;;;27.19;25.65;102231.59;5060021;28;760;-38
2020/12/19 08:57:28;;;;;;;;;;;;;;;27.19;25.98;102233.44;5059119;28;792;-39
2020/12/19 09:00:07;;;;;;;;;;;;;;;27.04;25.92;102227.66;5059104;28;772;-38
2020/12/19 09:02:32;;;;;;;;;;;;;;;26.39;26.98;102220.03;5059431;28;755;-37
2020/12/19 09:04:58;;;;;;;;;;;;;;;26.73;26.70;102221.44;5041090;28;1014;-36
2020/12/19 09:07:26;;;;;;;;;;;;;;;26.97;26.22;102224.66;5059359;28;735;-34
2020/12/19 09:09:51;;;;;;;;;;;;;;;27.10;25.89;102214.44;5059085;28;815;-36
2020/12/19 09:12:17;;;;;;;;;;;;;;;26.51;26.77;102217.19;5058936;28;843;-38
2020/12/19 09:14:42;;;;;;;;;;;;;;;26.16;27.25;102205.94;5057743;28;760;-35
2020/12/19 09:17:08;;;;;;;;;;;;;;;26.66;26.93;102209.50;5058764;28;1895;-36
2020/12/19 09:19:33;;;;;;;;;;;;;;;26.95;26.30;102210.44;5058766;28;1099;-37
2020/12/19 09:21:59;;;;;;;;;;;;;;;26.38;27.01;102199.47;5058784;28;975;-38
2020/12/19 09:24:25;;;;;;;;;;;;;;;26.61;26.80;102190.22;5058888;28;742;-36
2020/12/19 09:26:50;;;;;;;;;;;;;;;27.38;25.82;102187.44;5058662;28;776;-37
2020/12/19 09:29:15;;;;;;;;;;;;;;;27.68;25.43;102183.69;5059162;28;767;-37
2020/12/19 09:31:41;;;;;;;;;;;;;;;27.81;25.01;102184.22;5058604;28;736;-39
2020/12/19 09:34:06;;;;;;;;;;;;;;;27.22;25.64;102174.56;5058526;28;802;-36
2020/12/19 09:36:31;;;;;;;;;;;;;;;26.94;26.18;102169.13;5058578;28;1982;-38
2020/12/19 09:38:57;;;;;;;;;;;;;;;27.47;25.72;102161.38;5058457;28;776;-38
2020/12/19 09:41:22;;;;;;;;;;;;;;;27.70;25.13;102165.50;5058305;28;851;-36
2020/12/19 09:43:47;;;;;;;;;;;;;;;26.86;24.31;102169.00;5062862;28;1180;-37
2020/12/19 09:46:13;;;;;;;;;;;;;;;26.41;24.14;102156.00;5078254;28;819;-42
2020/12/19 09:48:38;;;;;;;;;;;;;;;27.07;24.69;102149.91;5078140;28;859;-42
2020/12/19 09:51:04;;;;;;;;;;;;;;;27.31;24.61;102145.78;5066779;28;947;-43
2020/12/19 09:53:29;;;;;;;;;;;;;;;27.36;24.75;102148.06;5058223;28;808;-42
2020/12/19 09:55:54;;;;;;;;;;;;;;;27.03;25.26;102145.78;5058180;28;1902;-42
2020/12/19 09:58:20;;;;;;;;;;;;;;;27.05;25.32;102145.63;5058180;28;828;-44
2020/12/19 10:00:45;;;;;;;;;;;;;;;27.45;24.91;102147.16;5058037;28;760;-44
2020/12/19 10:03:10;;;;;;;;;;;;;;;27.58;25.07;102148.63;5057958;28;806;-43
2020/12/19 10:05:37;;;;;;;;;;;;;;;27.18;25.68;102146.16;5057917;28;1172;-42
2020/12/19 10:08:03;;;;;;;;;;;;;;;27.03;25.72;102140.38;5057819;28;775;-40
2020/12/19 10:10:28;;;;;;;;;;;;;;;27.41;25.52;102129.53;5057873;28;887;-42
2020/12/19 10:12:53;;;;;;;;;;;;;;;27.59;25.18;102136.81;5057884;28;753;-42
2020/12/19 10:15:18;;;;;;;;;;;;;;;27.65;25.04;102132.66;5057771;28;1901;-43
2020/12/19 10:17:44;;;;;;;;;;;;;;;27.01;26.02;102128.84;5058015;28;725;-42
2020/12/19 10:20:09;;;;;;;;;;;;;;;27.06;25.95;102129.28;5057745;28;1327;-42
2020/12/19 10:22:34;;;;;;;;;;;;;;;27.26;25.63;102121.94;5057713;28;842;-42
2020/12/19 10:25:00;;;;;;;;;;;;;;;27.42;25.74;102135.78;5057919;28;751;-42
2020/12/19 10:27:26;;;;;;;;;;;;;;;26.56;26.63;102123.16;5057032;28;812;-42
2020/12/19 10:29:51;;;;;;;;;;;;;;;26.71;26.46;102122.72;5057954;28;780;-42
2020/12/19 10:32:16;;;;;;;;;;;;;;;27.30;25.55;102122.50;5057387;28;852;-42
2020/12/19 10:34:42;;;;;;;;;;;;;;;27.58;25.14;102124.28;5057532;28;1029;-42
2020/12/19 10:37:07;;;;;;;;;;;;;;;27.45;25.27;102121.97;5057409;28;1975;-40
2020/12/19 10:39:32;;;;;;;;;;;;;;;26.74;26.21;102123.25;5057284;28;822;-40
2020/12/19 10:41:57;;;;;;;;;;;;;;;26.42;27.06;102116.41;5056930;28;824;-41
2020/12/19 10:44:23;;;;;;;;;;;;;;;27.01;26.03;102120.72;5066631;28;1199;-40
2020/12/19 10:46:48;;;;;;;;;;;;;;;27.17;26.10;102114.75;5076839;28;800;-41
2020/12/19 10:49:14;;;;;;;;;;;;;;;26.74;26.79;102115.16;5077202;28;740;-42
2020/12/19 10:51:39;;;;;;;;;;;;;;;26.48;27.14;102121.19;5060759;28;955;-42
2020/12/19 10:54:04;;;;;;;;;;;;;;;27.09;26.14;102115.47;5056961;28;735;-42
2020/12/19 10:56:29;;;;;;;;;;;;;;;27.37;25.76;102114.63;5056939;28;1902;-41
2020/12/19 10:58:55;;;;;;;;;;;;;;;27.33;25.81;102107.81;5076326;28;981;-42
2020/12/19 11:01:20;;;;;;;;;;;;;;;27.28;25.92;102116.38;5077214;28;701;-42
2020/12/19 11:03:46;;;;;;;;;;;;;;;26.49;27.00;102111.28;5077017;28;795;-42
2020/12/19 11:06:21;;;;;;;;;;;;;;;26.67;26.89;102115.91;5067826;28;1010;-41
2020/12/19 11:08:46;;;;;;;;;;;;;;;27.05;26.25;102118.63;5076385;28;879;-41
2020/12/19 11:11:11;;;;;;;;;;;;;;;27.18;25.92;102111.03;5076942;28;803;-41
2020/12/19 11:13:37;;;;;;;;;;;;;;;27.13;26.02;102116.03;5076999;28;760;-41
2020/12/19 11:16:02;;;;;;;;;;;;;;;26.20;27.35;102106.72;5076455;28;1972;-42
2020/12/19 11:18:27;;;;;;;;;;;;;;;26.53;27.19;102109.97;5076723;28;1157;-41
2020/12/19 11:20:53;;;;;;;;;;;;;;;27.16;26.16;102106.78;5066823;28;1022;-42
2020/12/19 11:23:18;;;;;;;;;;;;;;;27.43;26.13;102105.91;5056342;28;748;-42
2020/12/19 11:25:43;;;;;;;;;;;;;;;27.35;26.08;102109.38;5056789;28;807;-42
2020/12/19 11:28:08;;;;;;;;;;;;;;;27.22;25.51;102108.88;5056610;28;816;-42
2020/12/19 11:30:34;;;;;;;;;;;;;;;26.37;27.06;102103.34;5056339;28;776;-41
2020/12/19 11:32:59;;;;;;;;;;;;;;;26.62;27.04;102105.56;5057030;28;800;-41
2020/12/19 11:35:24;;;;;;;;;;;;;;;27.00;26.34;102105.53;5056055;28;1922;-42
2020/12/19 11:37:50;;;;;;;;;;;;;;;27.07;26.37;102104.00;5055589;28;823;-41
2020/12/19 11:40:15;;;;;;;;;;;;;;;27.22;26.22;102101.63;5056864;28;755;-42
2020/12/19 11:42:40;;;;;;;;;;;;;;;26.50;27.00;102097.63;5071243;28;868;-41
2020/12/19 11:45:06;;;;;;;;;;;;;;;26.64;26.90;102101.69;5076407;28;1108;-41
2020/12/19 11:47:31;;;;;;;;;;;;;;;27.30;26.02;102103.56;5076399;28;802;-41
2020/12/19 11:49:56;;;;;;;;;;;;;;;27.30;26.15;102108.13;5074122;28;959;-43
2020/12/19 11:52:22;;;;;;;;;;;;;;;27.28;26.34;102102.88;5056234;28;832;-42
2020/12/19 11:54:47;;;;;;;;;;;;;;;27.47;25.95;102101.91;5055918;28;819;-42
2020/12/19 11:57:12;;;;;;;;;;;;;;;26.64;26.97;102106.25;5056537;28;1897;-42
2020/12/19 11:59:38;;;;;;;;;;;;;;;26.33;27.62;102101.91;5056096;28;906;-41
2020/12/19 12:02:03;;;;;;;;;;;;;;;26.83;26.67;102099.94;5056173;28;752;-41
2020/12/19 12:04:28;;;;;;;;;;;;;;;27.10;26.52;102103.69;5056515;28;816;-41
2020/12/19 12:06:54;;;;;;;;;;;;;;;27.19;26.41;102101.94;5056184;28;1003;-42
2020/12/19 12:09:19;;;;;;;;;;;;;;;26.52;27.02;102092.09;5056074;28;764;-41
2020/12/19 12:11:44;;;;;;;;;;;;;;;26.59;27.30;102097.75;5056149;28;791;-40
2020/12/19 12:14:10;;;;;;;;;;;;;;;27.08;26.49;102105.69;5055834;28;906;-40
2020/12/19 12:16:35;;;;;;;;;;;;;;;27.19;26.57;102103.78;5056036;28;1969;-41
2020/12/19 12:19:00;;;;;;;;;;;;;;;27.23;26.35;102095.22;5056006;28;1828;-36
2020/12/19 12:21:33;;;;;;;;;;;;;;;26.90;26.78;102097.50;5055934;28;986;-32
2020/12/19 12:23:58;;;;;;;;;;;;;;;26.25;27.69;102097.22;5056098;28;804;-41
2020/12/19 12:26:24;;;;;;;;;;;;;;;26.67;27.46;102099.69;5055556;28;812;-46
2020/12/19 12:28:49;;;;;;;;;;;;;;;27.03;26.90;102102.56;5056104;28;740;-35
2020/12/19 12:31:19;;;;;;;;;;;;;;;27.16;26.54;102099.50;5055979;28;774;-32
2020/12/19 12:33:44;;;;;;;;;;;;;;;26.81;26.91;102099.22;5055934;28;807;-37
2020/12/19 12:36:10;;;;;;;;;;;;;;;26.19;27.98;102096.94;5055778;28;1910;-38
2020/12/19 12:38:35;;;;;;;;;;;;;;;26.68;27.34;102096.84;5055785;28;748;-37
2020/12/19 12:41:00;;;;;;;;;;;;;;;26.93;26.79;102099.88;5055839;28;818;-36
2020/12/19 12:43:25;;;;;;;;;;;;;;;26.99;26.83;102103.84;5057468;28;1112;-37
2020/12/19 12:45:51;;;;;;;;;;;;;;;27.26;26.49;102108.41;5076118;28;736;-36
2020/12/19 12:48:16;;;;;;;;;;;;;;;27.52;25.96;102106.84;5076010;28;754;-36